Gossett, Illinois
Current Conditions -  °F | °C
As of 4:35 PM on Tuesday 21 Oct 2014 (Local Time) from KCUL Reporting Station
Clear Clear  
Wind Chill: 19°   Ceiling: Unl
Heat Index: 19°   Visibility: 10mi
Dew Point:   Wind: 8mph
Humidity: 47%   Direction: 20°NNE
Pressure: 30.1"   Gusts: NA
Location:  37.9739°N, 88.3193°W
Report Text: KCUL 212135Z AUTO 02007KT 10SM CLR 19/07 A3010 RMK AO2 T01850071
Loading
Personal Weather Stations






























Interactive Weather Map
Tropical Storm Tracking
New forecast layout! Learn more

10-Day Weather Forecast

Advertisements
Track Severe Weather on mobile